createdAt,value
2023-05-11T00:01:09.926Z,2.30
2023-05-11T00:03:37.396Z,2.60
2023-05-11T00:06:04.614Z,2.30
2023-05-11T00:08:32.102Z,2.30
2023-05-11T00:11:02.484Z,2.22
2023-05-11T00:13:29.886Z,2.30
2023-05-11T00:15:57.229Z,2.50
2023-05-11T00:18:24.710Z,2.30
2023-05-11T00:20:51.972Z,2.00
2023-05-11T00:23:19.456Z,2.30
2023-05-11T00:25:46.578Z,2.50
2023-05-11T00:28:13.998Z,2.30
2023-05-11T00:30:41.461Z,2.55
2023-05-11T00:33:08.910Z,3.15
2023-05-11T00:35:36.222Z,2.85
2023-05-11T00:38:03.886Z,4.82
2023-05-11T00:40:34.913Z,4.25
2023-05-11T00:43:02.329Z,3.47
2023-05-11T00:45:30.426Z,3.22
2023-05-11T00:47:58.608Z,3.35
2023-05-11T00:50:27.113Z,3.15
2023-05-11T00:52:55.985Z,2.83
2023-05-11T00:55:23.305Z,3.00
2023-05-11T00:57:51.036Z,2.90
2023-05-11T01:00:18.593Z,3.10
2023-05-11T01:02:46.581Z,2.85
2023-05-11T01:05:14.126Z,3.00
2023-05-11T01:08:11.806Z,2.60
2023-05-11T01:11:12.205Z,3.00
2023-05-11T01:13:50.604Z,2.80
2023-05-11T01:16:26.745Z,2.72
2023-05-11T01:19:44.767Z,2.67
2023-05-11T01:23:06.939Z,2.60
2023-05-11T01:26:32.318Z,3.08
2023-05-11T01:29:40.064Z,2.90
2023-05-11T01:32:20.657Z,2.70
2023-05-11T01:34:59.767Z,2.60
2023-05-11T01:37:31.493Z,2.38
2023-05-11T01:40:05.379Z,2.55
2023-05-11T01:42:41.899Z,2.30
2023-05-11T01:45:13.076Z,3.03
2023-05-11T01:47:45.225Z,2.40
2023-05-11T01:50:14.441Z,2.70
2023-05-11T01:52:43.926Z,2.50
2023-05-11T01:55:15.680Z,2.78
2023-05-11T01:57:45.416Z,2.95
2023-05-11T02:00:16.682Z,2.53
2023-05-11T02:02:49.275Z,2.90
2023-05-11T02:05:22.846Z,2.77
2023-05-11T02:07:54.325Z,3.15
2023-05-11T02:10:26.713Z,3.22
2023-05-11T02:12:56.350Z,3.22
2023-05-11T02:15:26.475Z,3.42
2023-05-11T02:17:55.939Z,3.80
2023-05-11T02:20:25.201Z,3.90
2023-05-11T02:22:54.417Z,3.83
2023-05-11T02:25:23.724Z,3.20
2023-05-11T02:27:51.658Z,3.67
2023-05-11T02:30:19.889Z,3.17
2023-05-11T02:32:56.316Z,3.75
2023-05-11T02:35:30.290Z,3.60
2023-05-11T02:38:03.818Z,3.60
2023-05-11T02:40:48.063Z,3.85
2023-05-11T02:43:24.828Z,3.40
2023-05-11T02:46:14.648Z,3.58
2023-05-11T02:48:54.341Z,3.60
2023-05-11T02:51:33.243Z,3.40
2023-05-11T02:54:02.715Z,3.15
2023-05-11T02:56:35.875Z,3.55
2023-05-11T02:59:03.750Z,3.78
2023-05-11T03:01:31.659Z,3.50
2023-05-11T03:03:59.191Z,3.50
2023-05-11T03:06:29.370Z,3.20
2023-05-11T03:08:57.062Z,3.90
2023-05-11T03:11:26.561Z,3.15
2023-05-11T03:13:54.519Z,3.10
2023-05-11T03:16:23.666Z,3.88
2023-05-11T03:18:52.105Z,3.40
2023-05-11T03:21:22.328Z,3.63
2023-05-11T03:23:50.561Z,3.67
2023-05-11T03:26:21.386Z,3.60
2023-05-11T03:28:53.232Z,3.15
2023-05-11T03:31:20.612Z,3.85
2023-05-11T03:33:48.748Z,3.50
2023-05-11T03:36:17.926Z,3.55
2023-05-11T03:38:48.733Z,3.50
2023-05-11T03:41:20.298Z,3.45
2023-05-11T03:43:54.353Z,3.42
2023-05-11T03:46:24.992Z,3.67
2023-05-11T03:48:53.841Z,3.70
2023-05-11T03:51:25.506Z,3.90
2023-05-11T03:53:53.173Z,4.25
2023-05-11T03:56:21.582Z,3.80
2023-05-11T03:58:49.690Z,3.97
2023-05-11T04:01:17.093Z,4.10
2023-05-11T04:03:54.052Z,3.90
2023-05-11T04:06:23.391Z,4.88
2023-05-11T04:08:59.147Z,4.60
2023-05-11T04:11:27.823Z,5.05
2023-05-11T04:13:55.595Z,5.65
2023-05-11T04:16:22.749Z,6.18
2023-05-11T04:18:50.245Z,5.10
2023-05-11T04:21:17.366Z,4.80
2023-05-11T04:23:44.801Z,4.90
2023-05-11T04:26:12.515Z,4.57
2023-05-11T04:28:40.010Z,5.03
2023-05-11T04:31:07.786Z,4.88
2023-05-11T04:33:35.185Z,4.90
2023-05-11T04:36:02.455Z,4.20
2023-05-11T04:38:30.916Z,5.88
2023-05-11T04:40:58.043Z,4.10
2023-05-11T04:43:25.499Z,4.28
2023-05-11T04:45:52.851Z,5.60
2023-05-11T04:48:28.454Z,4.50
2023-05-11T04:50:56.819Z,4.40
2023-05-11T04:53:28.738Z,5.18
2023-05-11T04:55:55.965Z,4.80
2023-05-11T04:58:23.353Z,4.10
2023-05-11T05:00:50.775Z,4.80
2023-05-11T05:03:19.675Z,4.07
2023-05-11T05:05:46.973Z,4.25
2023-05-11T05:08:14.502Z,4.18
2023-05-11T05:10:41.679Z,4.07
2023-05-11T05:13:09.198Z,3.72
2023-05-11T05:15:36.288Z,3.65
2023-05-11T05:18:04.035Z,4.22
2023-05-11T05:20:31.824Z,3.95
2023-05-11T05:22:59.209Z,3.90
2023-05-11T05:25:26.512Z,4.20
2023-05-11T05:27:53.953Z,4.57
2023-05-11T05:30:21.346Z,3.35
2023-05-11T05:32:49.727Z,3.47
2023-05-11T05:35:16.907Z,3.70
2023-05-11T05:37:44.641Z,3.80
2023-05-11T05:40:12.111Z,3.72
2023-05-11T05:42:46.037Z,3.58
2023-05-11T05:45:16.117Z,3.28
2023-05-11T05:47:43.970Z,3.17
2023-05-11T05:50:11.797Z,3.30
2023-05-11T05:52:42.388Z,4.63
2023-05-11T05:55:10.302Z,3.33
2023-05-11T05:57:39.340Z,3.40
2023-05-11T06:00:09.612Z,3.30
2023-05-11T06:02:43.065Z,3.88
2023-05-11T06:05:19.609Z,3.90
2023-05-11T06:07:57.983Z,3.78
2023-05-11T06:10:29.683Z,3.65
2023-05-11T06:12:57.170Z,4.32
2023-05-11T06:15:27.083Z,3.50
2023-05-11T06:18:00.350Z,3.47
2023-05-11T06:20:28.353Z,3.47
2023-05-11T06:22:55.832Z,3.20
2023-05-11T06:25:23.281Z,3.50
2023-05-11T06:27:51.446Z,3.28
2023-05-11T06:30:19.413Z,3.45
2023-05-11T06:32:49.138Z,3.63
2023-05-11T06:35:19.198Z,3.72
2023-05-11T06:37:46.979Z,3.30
2023-05-11T06:40:16.638Z,4.07
2023-05-11T06:42:44.259Z,3.50
2023-05-11T06:45:12.112Z,3.20
2023-05-11T06:47:42.597Z,3.63
2023-05-11T06:50:10.408Z,3.40
2023-05-11T06:52:38.389Z,3.90
2023-05-11T06:55:06.425Z,4.28
2023-05-11T06:57:33.796Z,3.28
2023-05-11T07:00:00.917Z,4.07
2023-05-11T07:02:28.534Z,3.50
2023-05-11T07:04:55.865Z,3.60
2023-05-11T07:07:23.542Z,3.90
2023-05-11T07:09:50.902Z,4.50
2023-05-11T07:12:18.349Z,3.50
2023-05-11T07:14:45.528Z,3.33
2023-05-11T07:17:12.958Z,3.80
2023-05-11T07:19:40.237Z,3.33
2023-05-11T07:22:07.659Z,3.45
2023-05-11T07:24:34.854Z,3.10
2023-05-11T07:27:02.347Z,3.08
2023-05-11T07:29:29.620Z,3.67
2023-05-11T07:31:57.189Z,3.08
2023-05-11T07:34:24.668Z,3.05
2023-05-11T07:36:51.997Z,2.58
2023-05-11T07:39:19.409Z,3.30
2023-05-11T07:41:47.228Z,3.05
2023-05-11T07:44:14.560Z,4.25
2023-05-11T07:46:42.047Z,3.90
2023-05-11T07:49:17.127Z,3.00
2023-05-11T07:51:52.100Z,3.55
2023-05-11T07:54:21.044Z,3.20
2023-05-11T07:56:50.364Z,3.20
2023-05-11T07:59:17.617Z,3.60
2023-05-11T08:01:45.034Z,3.45
2023-05-11T08:04:12.208Z,3.20
2023-05-11T08:06:40.059Z,3.33
2023-05-11T08:09:07.178Z,3.00
2023-05-11T08:11:34.764Z,3.17
2023-05-11T08:14:03.368Z,3.72
2023-05-11T08:16:30.780Z,3.10
2023-05-11T08:18:58.124Z,3.35
2023-05-11T08:21:26.334Z,3.00
2023-05-11T08:23:53.461Z,3.78
2023-05-11T08:26:21.455Z,3.35
2023-05-11T08:28:48.863Z,2.72
2023-05-11T13:57:24.529Z,1.48
2023-05-11T13:59:52.051Z,1.60
2023-05-11T14:02:19.424Z,1.30
2023-05-11T14:04:46.889Z,1.42
2023-05-11T14:07:15.256Z,1.70
2023-05-11T14:09:43.824Z,1.40
2023-05-11T14:12:10.862Z,1.42
2023-05-11T14:14:38.202Z,1.95
2023-05-11T14:17:06.149Z,1.30
2023-05-11T14:19:33.852Z,1.95
2023-05-11T14:22:01.100Z,1.50
2023-05-11T14:24:28.499Z,1.40
2023-05-11T14:26:55.501Z,1.50
2023-05-11T14:29:22.675Z,1.60
2023-05-11T14:31:50.057Z,1.48
2023-05-11T14:34:17.354Z,1.65
2023-05-11T14:36:44.374Z,1.52
2023-05-11T14:39:11.700Z,1.23
2023-05-11T14:41:38.713Z,1.27
2023-05-11T14:44:06.093Z,1.48
2023-05-11T14:46:33.047Z,1.38
2023-05-11T14:49:00.329Z,1.55
2023-05-11T14:51:27.563Z,1.35
2023-05-11T14:53:54.371Z,1.55
2023-05-11T14:56:23.397Z,1.63
2023-05-11T14:58:50.438Z,1.27
2023-05-11T15:01:17.970Z,1.45
2023-05-11T15:03:45.110Z,1.60
2023-05-11T15:06:20.816Z,1.35
2023-05-11T15:08:49.382Z,1.08
2023-05-11T15:11:17.893Z,1.38
2023-05-11T15:13:47.487Z,1.60
2023-05-11T15:16:15.474Z,1.42
2023-05-11T15:18:43.200Z,1.80
2023-05-11T15:21:11.562Z,1.30
2023-05-11T15:23:38.517Z,1.48
2023-05-11T15:26:05.957Z,1.50
2023-05-11T15:28:32.935Z,1.45
2023-05-11T15:31:00.193Z,1.13
2023-05-11T15:33:27.131Z,1.40
2023-05-11T15:35:54.545Z,1.83
2023-05-11T15:38:21.653Z,1.30
2023-05-11T15:40:48.879Z,1.33
2023-05-11T15:43:15.761Z,1.63
2023-05-11T15:45:43.744Z,1.58
2023-05-11T15:48:12.133Z,1.35
2023-05-11T15:50:39.354Z,1.50
2023-05-11T15:53:06.372Z,1.50
2023-05-11T15:55:34.360Z,1.30
2023-05-11T15:58:01.326Z,1.50
2023-05-11T16:00:28.543Z,2.03
2023-05-11T16:02:55.546Z,1.38
2023-05-11T16:05:22.711Z,1.50
2023-05-11T16:07:50.793Z,1.60
2023-05-11T16:10:18.231Z,1.40
2023-05-11T16:12:46.072Z,1.67
2023-05-11T16:15:13.399Z,1.58
2023-05-11T16:17:40.350Z,1.30
2023-05-11T16:20:08.464Z,1.40
2023-05-11T16:22:37.243Z,1.38
2023-05-11T16:25:05.896Z,1.30
2023-05-11T16:27:32.859Z,1.30
2023-05-11T16:30:01.223Z,1.20
2023-05-11T16:32:33.177Z,1.70
2023-05-11T16:35:00.498Z,1.40
2023-05-11T16:37:27.424Z,1.58
2023-05-11T16:39:54.586Z,1.50
2023-05-11T16:42:22.707Z,1.50
2023-05-11T16:44:51.405Z,1.58
2023-05-11T16:47:18.370Z,1.52
2023-05-11T16:49:45.633Z,1.35
2023-05-11T16:52:12.634Z,1.45
2023-05-11T16:54:40.028Z,1.52
2023-05-11T16:57:07.195Z,1.60
2023-05-11T16:59:34.639Z,1.50
2023-05-11T17:02:02.127Z,1.30
2023-05-11T17:04:29.379Z,1.50
2023-05-11T17:06:56.697Z,1.30
2023-05-11T17:09:23.868Z,1.30
2023-05-11T17:11:51.307Z,1.63
2023-05-11T17:14:18.496Z,1.42
2023-05-11T17:16:45.573Z,1.58
2023-05-11T17:19:12.903Z,1.55
2023-05-11T17:21:40.013Z,1.60
2023-05-11T17:24:08.534Z,1.67
2023-05-11T17:26:47.227Z,1.80
2023-05-11T17:29:18.530Z,1.50
2023-05-11T17:31:48.774Z,1.80
2023-05-11T17:34:17.764Z,1.90
2023-05-11T17:36:44.862Z,1.80
2023-05-11T17:39:12.665Z,1.52
2023-05-11T17:41:39.850Z,1.70
2023-05-11T17:44:07.278Z,1.35
2023-05-11T17:46:34.608Z,1.70
2023-05-11T17:49:03.091Z,1.67
2023-05-11T17:51:30.044Z,1.90
2023-05-11T17:53:57.337Z,1.55
2023-05-11T17:56:24.389Z,1.75
2023-05-11T17:58:51.869Z,1.65
2023-05-11T18:01:19.663Z,1.73
2023-05-11T18:03:47.425Z,1.92
2023-05-11T18:06:14.686Z,2.10
2023-05-11T18:08:42.548Z,2.00
2023-05-11T18:11:10.897Z,1.98
2023-05-11T18:13:38.644Z,2.20
2023-05-11T18:16:05.866Z,2.20
2023-05-11T18:18:33.504Z,2.40
2023-05-11T18:21:08.159Z,2.60
2023-05-11T18:23:35.449Z,2.22
2023-05-11T18:26:03.481Z,2.10
2023-05-11T18:28:31.088Z,2.80
2023-05-11T18:30:58.256Z,3.00
2023-05-11T18:33:25.643Z,2.80
2023-05-11T18:35:52.780Z,3.05
2023-05-11T18:38:20.338Z,2.85
2023-05-11T18:40:47.685Z,2.58
2023-05-11T18:43:15.241Z,2.70
2023-05-11T18:45:44.193Z,2.70
2023-05-11T18:48:11.604Z,2.80
2023-05-11T18:50:39.640Z,3.00
2023-05-11T18:53:07.066Z,2.85
2023-05-11T18:55:45.061Z,2.83
2023-05-11T18:58:20.166Z,3.40
2023-05-11T19:00:48.638Z,3.50
2023-05-11T19:03:22.450Z,3.40
2023-05-11T19:05:50.715Z,3.10
2023-05-11T19:08:18.550Z,3.58
2023-05-11T19:10:47.850Z,4.03
2023-05-11T19:13:15.107Z,2.88
2023-05-11T19:15:42.317Z,3.70
2023-05-11T19:18:09.633Z,3.33
2023-05-11T19:20:39.123Z,3.20
2023-05-11T19:23:06.765Z,3.67
2023-05-11T19:25:33.776Z,3.55
2023-05-11T19:28:01.426Z,3.90
2023-05-11T19:30:28.432Z,4.15
2023-05-11T19:32:56.760Z,4.10
2023-05-11T19:35:23.986Z,4.68
2023-05-11T19:37:51.318Z,4.40
2023-05-11T19:40:44.404Z,4.10
2023-05-11T19:43:07.906Z,4.05
2023-05-11T19:45:37.303Z,3.65
2023-05-11T19:48:05.005Z,4.68
2023-05-11T19:50:32.219Z,3.67
2023-05-11T19:52:59.548Z,3.70
2023-05-11T19:55:26.595Z,3.72
2023-05-11T19:57:53.882Z,4.28
2023-05-11T20:00:25.000Z,3.50
2023-05-11T20:02:53.566Z,3.95
2023-05-11T20:05:20.865Z,3.63
2023-05-11T20:07:48.330Z,3.20
2023-05-11T20:10:15.455Z,3.78
2023-05-11T20:12:42.779Z,3.90
2023-05-11T20:15:10.635Z,3.28
2023-05-11T20:17:39.365Z,4.03
2023-05-11T20:20:08.508Z,3.20
2023-05-11T20:22:37.028Z,3.95
2023-05-11T20:25:11.653Z,4.60
2023-05-11T20:27:45.245Z,4.07
2023-05-11T20:30:12.924Z,3.80
2023-05-11T20:35:28.134Z,4.07
2023-05-11T20:37:55.719Z,3.50
2023-05-11T20:40:22.813Z,3.97
2023-05-11T20:42:50.078Z,4.35
2023-05-11T20:45:17.291Z,4.55
2023-05-11T20:47:44.817Z,3.70
2023-05-11T20:50:14.254Z,4.28
2023-05-11T20:52:41.512Z,4.22
2023-05-11T20:55:08.850Z,4.20
2023-05-11T20:57:36.299Z,3.97
2023-05-11T21:00:07.339Z,4.93
2023-05-11T21:02:35.039Z,4.07
2023-05-11T21:05:02.874Z,4.55
2023-05-11T21:07:30.246Z,4.47
2023-05-11T21:09:57.299Z,5.15
2023-05-11T21:12:24.636Z,4.47
2023-05-11T21:14:51.484Z,4.55
2023-05-11T21:17:19.039Z,4.63
2023-05-11T21:19:48.586Z,5.40
2023-05-11T21:22:15.796Z,5.38
2023-05-11T21:24:43.014Z,5.25
2023-05-11T21:27:10.102Z,4.80
2023-05-11T21:29:37.321Z,4.78
2023-05-11T21:32:05.106Z,4.90
2023-05-11T21:34:32.579Z,5.10
2023-05-11T21:36:59.815Z,4.72
2023-05-11T21:39:27.024Z,5.22
2023-05-11T21:41:54.129Z,5.03
2023-05-11T21:44:21.425Z,4.88
2023-05-11T21:46:48.628Z,4.80
2023-05-11T21:49:16.194Z,4.70
2023-05-11T21:51:43.114Z,4.00
2023-05-11T21:54:10.378Z,5.00
2023-05-11T21:56:37.470Z,4.55
2023-05-11T21:59:04.751Z,4.43
2023-05-11T22:01:31.897Z,4.50
2023-05-11T22:04:01.114Z,5.20
2023-05-11T22:06:28.398Z,4.15
2023-05-11T22:08:55.839Z,4.50
2023-05-11T22:11:22.738Z,4.55
2023-05-11T22:13:50.017Z,3.88
2023-05-11T22:16:17.224Z,3.30
2023-05-11T22:18:44.671Z,4.20
2023-05-11T22:21:11.709Z,3.83
2023-05-11T22:23:38.920Z,4.22
2023-05-11T22:26:06.083Z,4.18
2023-05-11T22:28:33.377Z,3.80
2023-05-11T22:31:00.710Z,4.43
2023-05-11T22:33:28.250Z,3.38
2023-05-11T22:35:55.606Z,3.10
2023-05-11T22:38:23.188Z,4.45
2023-05-11T22:40:50.154Z,4.25
2023-05-11T22:43:17.661Z,4.05
2023-05-11T22:45:44.743Z,4.20
2023-05-11T22:48:12.092Z,4.63
2023-05-11T22:50:46.561Z,4.60
2023-05-11T22:53:14.618Z,3.88
2023-05-11T22:55:42.147Z,4.80
2023-05-11T22:58:09.403Z,4.50
2023-05-11T23:00:36.698Z,3.95
2023-05-11T23:03:04.343Z,5.25
2023-05-11T23:05:31.680Z,4.45
2023-05-11T23:07:59.915Z,4.72
2023-05-11T23:10:28.557Z,4.90
2023-05-11T23:12:56.429Z,5.32
2023-05-11T23:15:23.405Z,5.07
2023-05-11T23:17:50.846Z,5.15
2023-05-11T23:20:18.097Z,5.15
2023-05-11T23:22:45.645Z,5.53
2023-05-11T23:25:12.540Z,4.03
2023-05-11T23:27:39.768Z,5.50
2023-05-11T23:30:07.652Z,4.57
2023-05-11T23:32:34.913Z,3.70
2023-05-11T23:35:01.847Z,5.05
2023-05-11T23:37:29.093Z,4.65
2023-05-11T23:39:56.058Z,5.10
2023-05-11T23:42:23.327Z,4.70
2023-05-11T23:44:50.383Z,4.28
2023-05-11T23:47:17.634Z,3.95
2023-05-11T23:49:44.662Z,5.20
2023-05-11T23:52:12.198Z,4.78
2023-05-11T23:54:39.088Z,4.85
2023-05-11T23:57:06.546Z,4.20
2023-05-11T23:59:33.764Z,4.90
